Rijnsburg, Netherlands
Current Conditions -  °F | °C
As of 2:25 AM on Thursday 23 Oct 2014 (Local Time) from EHAM Reporting Station
Broken Clouds Broken Clouds  
Wind Chill: 52°   Ceiling: 4200
Heat Index: 52°   Visibility: 6mi
Dew Point: 50°   Wind: 6mph
Humidity: 94%   Direction: 190°S
Pressure: 30.15"   Gusts: NA
Location:  52.19°N, 4.44°E
Report Text: EHAM 230025Z 19005KT 9999 FEW023 BKN042 11/10 Q1021 NOSIG
Loading
Personal Weather Stations






























Interactive Weather Map
Tropical Storm Tracking
New forecast layout! Learn more

10-Day Weather Forecast

Advertisements
Track Severe Weather on mobile